Acme, North Carolina
Current Conditions -  °F | °C
As of 9:53 PM on Sunday 21 Dec 2014 (Local Time) from KILM Reporting Station
Overcast Overcast  
Wind Chill: 37°   Ceiling: 3800
Heat Index: 43°   Visibility: 9mi
Dew Point: 41°   Wind: 10mph
Humidity: 93%   Direction: 50°NE
Pressure: 30.18"   Gusts: NA
Location:  34.3494°N, 78.2681°W
Report Text: KILM 220253Z 05009KT 9SM FEW019 BKN038 OVC049 06/05 A3018 RMK AO2 RAE37 SLP219 P0001 60002 T00610050 58013
Loading
Personal Weather Stations






























Interactive Weather Map New forecast layout! Learn more

10-Day Weather Forecast

Advertisements
Track Severe Weather on mobile